NCAR-RAP Real-Time Weather Data

Output produced by METARs form (17 September 2019  16:45 UTC)
found at http://weather.rap.ucar.edu/surface/
 
KIAD 171603Z 06006KT 10SM FEW023 BKN045 OVC065 24/16 A3013 RMK AO2 T02390161
KIAD 171552Z 06008KT 10SM BKN025 BKN033 OVC065 23/17 A3013 RMK AO2 SLP200 T02330167
KIAD 171521Z 05009KT 10SM SCT023 OVC030 23/17 A3013 RMK AO2 T02280172
KIAD 171452Z 04009KT 10SM SCT018 BKN029 OVC034 23/17 A3013 RMK AO2 SLP199 T02330172 51017
KIAD 171352Z 08009G16KT 10SM BKN016 BKN055 BKN110 22/17 A3012 RMK AO2 SLP196 T02220172
KIAD 171252Z 04010KT 10SM BKN016 BKN055 BKN100 22/17 A3009 RMK AO2 SLP188 T02170172
KIAD 171245Z 05008KT 10SM SCT016 OVC055 22/17 A3009 RMK AO2 T02170172
KIAD 171152Z 03009KT 10SM BKN013 OVC030 21/18 A3008 RMK AO2 SLP181 T02110183 10239 20206 53021
KIAD 171124Z 03009KT 10SM BKN013 OVC030 21/18 A3006 RMK AO2 T02110178
KIAD 171059Z 03007KT 10SM BKN014 BKN049 OVC070 21/18 A3006 RMK AO2 T02110178
KIAD 171052Z 03007KT 10SM SCT014 BKN040 OVC070 21/18 A3005 RMK AO2 SLP173 T02110178
KIAD 170952Z 03007KT 10SM BKN060 BKN075 BKN110 BKN250 21/17 A3003 RMK AO2 SLP165 T02110172
KIAD 170852Z 02008KT 10SM SCT060 BKN075 BKN100 22/17 A3001 RMK AO2 SLP159 T02170172 56002
KIAD 170752Z 03007KT 10SM SCT080 BKN110 BKN250 22/17 A3001 RMK AO2 SLP159 T02170167
KIAD 170652Z 02008KT 10SM BKN080 BKN250 23/17 A3002 RMK AO2 SLP161 T02280172
KIAD 170552Z 04005KT 10SM BKN080 BKN100 23/17 A3002 RMK AO2 SLP162 T02330172 10272 20233 53004
KIAD 170452Z 02006KT 10SM BKN085 24/17 A3001 RMK AO2 SLP159 T02390172 403280144
KIAD 170352Z 04007KT 10SM SCT080 BKN110 24/17 A3001 RMK AO2 SLP159 T02390172
KIAD 170252Z 06004KT 10SM SCT080 BKN120 24/16 A3001 RMK AO2 SLP157 T02440161 53014
KIAD 170052Z 07009KT 10SM FEW085 BKN110 27/17 A2998 RMK AO2 SLP148 T02720172
KIAD 162352Z 12003KT 10SM BKN085 BKN110 BKN250 25/16 A2997 RMK AO2 SLP144 T02500156 10328 20250 53003
KIAD 162252Z 09005KT 10SM BKN090 BKN120 BKN250 29/15 A2995 RMK AO2 SLP141 T02890150
KIAD 162152Z VRB03KT 10SM FEW080 FEW110 SCT160 SCT250 32/13 A2995 RMK AO2 SLP138 T03170133
KIAD 162052Z 29003KT 10SM FEW080 FEW120 SCT170 SCT250 32/14 A2996 RMK AO2 SLP141 T03220139 56021
KIAD 161952Z VRB05KT 10SM FEW070 FEW150 FEW250 32/13 A2997 RMK AO2 SLP146 T03220128
KIAD 161852Z VRB05KT 10SM FEW070 FEW250 32/13 A2999 RMK AO2 SLP154 T03220133